Fairbanks, AK (99701)

7:44 PM AKST on February 12, 2016 (GMT -0900)
KAKFAIRB24 | | Change Station
CLOSE
Current Station
Personal Weather Station
Location: Fairbanks, AK
Elevation: 540 ft
Nearby Weather Stations

Elev 540 ft 64.81 °N, 147.70 °W | Updated 3 minutes ago

Clear
Clear
8.2 °F
Feels Like 8 °F
N
0.0
Wind Variable Wind from West
Gusts 1.0 mph

Today
High -- | Low -- °F
--% Chance of Precip.
Yesterday
High -- | Low -- °F
Precip. -- in
Pressure 29.41 in
Visibility 10.0 miles
Clouds Clear
Windchill 8 °F
Dew Point 5 °F
Humidity 87%
Rainfall 0.00 in
Snow Depth Not available.
9:00 AM 5:10 PM
Waxing Crescent, 27% visible
METAR PAFB 130358Z AUTO 00000KT 10SM CLR M17/M19 A2936 RMK AO2 SLP959 T11721190 $
Pressure 29.41 in
Visibility 10.0 miles
Clouds Clear
Windchill 8 °F
Dew Point 5 °F
Humidity 87%
Rainfall 0.00 in
Snow Depth Not available.
9:00 AM 5:10 PM
Waxing Crescent, 27% visible
METAR PAFB 130358Z AUTO 00000KT 10SM CLR M17/M19 A2936 RMK AO2 SLP959 T11721190 $

10-Day Weather Forecast

Almanac

Astronomy

Feb. 12, 2016 Rise Set
Actual Time
Civil Twilight
Nautical Twilight
Astronomical Twilight
Moon
Length of Visible Light
Length of Day
Tomorrow will be .
, % of the Moon is Illuminated

Today's Extremes

State Highs State Lows

Community

WunderPhotos

Upload Photos

1,892,501 photos uploaded!

WunderBlog® & News

Nearby

Air Quality

  Air Quality AQ Index Pollutant
Not available.

Snow Depth

Station Depth Elevation

Earthquake Activity

City Distance Mag. Time & Date
Minimum magnitude displayed is 2.5.

Coastal Water Temperatures

Place Temperature

Stations

Nearby Weather Stations

Station Location Temp. Windchill Dew Point Humidity Wind Precip. Elev Updated Type
                   

Watches & Warnings

There are currently no watches in effect.